createdAt,value
2023-03-26T00:01:24.092Z,0.75
2023-03-26T00:03:54.610Z,0.55
2023-03-26T00:06:24.913Z,0.65
2023-03-26T00:08:54.851Z,0.80
2023-03-26T00:11:24.889Z,0.45
2023-03-26T00:13:56.920Z,0.40
2023-03-26T00:16:26.970Z,0.40
2023-03-26T00:18:55.202Z,0.57
2023-03-26T00:21:27.751Z,0.65
2023-03-26T00:23:58.495Z,0.60
2023-03-26T00:26:26.833Z,0.30
2023-03-26T00:28:54.884Z,0.60
2023-03-26T00:31:23.159Z,0.40
2023-03-26T00:33:55.456Z,0.28
2023-03-26T00:36:26.817Z,0.43
2023-03-26T00:38:55.345Z,0.57
2023-03-26T00:41:30.798Z,0.40
2023-03-26T00:44:00.861Z,0.35
2023-03-26T00:46:30.041Z,0.43
2023-03-26T00:48:58.796Z,0.47
2023-03-26T00:51:28.059Z,0.30
2023-03-26T00:53:56.581Z,0.20
2023-03-26T00:56:26.375Z,0.38
2023-03-26T00:58:54.455Z,0.50
2023-03-26T01:01:27.873Z,0.32
2023-03-26T01:04:07.303Z,0.40
2023-03-26T01:06:42.418Z,0.47
2023-03-26T01:09:16.670Z,0.40
2023-03-26T01:11:46.539Z,0.30
2023-03-26T01:14:17.822Z,0.32
2023-03-26T01:16:50.095Z,0.30
2023-03-26T01:19:24.925Z,0.40
2023-03-26T01:21:53.175Z,0.32
2023-03-26T01:24:22.948Z,0.30
2023-03-26T01:27:01.099Z,0.40
2023-03-26T01:29:34.549Z,0.40
2023-03-26T01:32:13.982Z,0.60
2023-03-26T01:34:54.408Z,0.30
2023-03-26T01:37:28.191Z,0.30
2023-03-26T01:40:06.930Z,0.40
2023-03-26T01:42:42.840Z,0.40
2023-03-26T01:45:14.336Z,0.50
2023-03-26T01:47:44.973Z,0.45
2023-03-26T01:50:13.276Z,0.47
2023-03-26T01:52:41.267Z,0.60
2023-03-26T01:55:12.731Z,0.45
2023-03-26T01:57:54.276Z,0.65
2023-03-26T02:00:29.545Z,0.30
2023-03-26T02:03:18.098Z,0.47
2023-03-26T02:05:54.077Z,0.43
2023-03-26T02:08:25.834Z,0.40
2023-03-26T02:11:00.578Z,0.40
2023-03-26T02:13:28.938Z,0.50
2023-03-26T02:15:58.405Z,0.30
2023-03-26T02:18:36.634Z,0.30
2023-03-26T02:21:09.964Z,0.60
2023-03-26T02:23:41.294Z,0.30
2023-03-26T02:26:12.280Z,0.40
2023-03-26T02:28:52.775Z,0.20
2023-03-26T02:31:21.834Z,0.50
2023-03-26T02:33:49.964Z,0.57
2023-03-26T02:36:22.037Z,0.30
2023-03-26T02:38:50.614Z,0.30
2023-03-26T02:41:20.510Z,0.43
2023-03-26T02:43:58.367Z,0.30
2023-03-26T02:46:44.580Z,0.30
2023-03-26T02:49:30.785Z,0.45
2023-03-26T02:51:59.147Z,0.30
2023-03-26T02:54:28.344Z,0.45
2023-03-26T02:57:17.917Z,0.40
2023-03-26T03:00:14.157Z,0.30
2023-03-26T03:03:00.487Z,0.30
2023-03-26T03:05:31.955Z,0.32
2023-03-26T03:08:14.793Z,0.22
2023-03-26T03:11:00.979Z,0.50
2023-03-26T03:13:40.993Z,0.55
2023-03-26T03:16:09.940Z,0.40
2023-03-26T03:18:38.435Z,0.57
2023-03-26T03:21:07.279Z,0.45
2023-03-26T03:23:35.417Z,0.63
2023-03-26T03:26:23.291Z,0.30
2023-03-26T03:28:55.828Z,0.50
2023-03-26T03:31:24.744Z,0.40
2023-03-26T03:33:53.623Z,0.20
2023-03-26T03:36:23.959Z,0.47
2023-03-26T03:39:02.879Z,0.57
2023-03-26T03:41:32.852Z,0.30
2023-03-26T03:44:05.004Z,0.50
2023-03-26T03:46:34.796Z,0.40
2023-03-26T03:49:02.909Z,0.30
2023-03-26T03:51:36.184Z,0.50
2023-03-26T03:54:08.556Z,0.47
2023-03-26T03:56:59.556Z,0.60
2023-03-26T03:59:47.590Z,0.40
2023-03-26T04:02:26.250Z,0.30
2023-03-26T04:04:58.780Z,0.40
2023-03-26T04:07:28.292Z,0.30
2023-03-26T04:10:10.309Z,0.43
2023-03-26T04:12:56.735Z,0.40
2023-03-26T04:15:55.315Z,0.50
2023-03-26T04:18:24.342Z,0.40
2023-03-26T04:20:52.377Z,0.63
2023-03-26T04:23:26.673Z,0.43
2023-03-26T04:26:04.604Z,0.50
2023-03-26T04:28:56.395Z,0.47
2023-03-26T04:31:30.687Z,0.40
2023-03-26T04:34:06.779Z,0.50
2023-03-26T04:36:42.810Z,0.22
2023-03-26T04:39:14.160Z,0.40
2023-03-26T04:42:12.265Z,0.52
2023-03-26T04:44:53.052Z,0.30
2023-03-26T04:47:23.530Z,0.45
2023-03-26T04:49:51.687Z,0.40
2023-03-26T04:52:19.959Z,0.63
2023-03-26T04:54:53.887Z,0.35
2023-03-26T04:57:28.732Z,0.75
2023-03-26T05:00:16.663Z,0.50
2023-03-26T05:02:50.919Z,0.38
2023-03-26T05:05:19.693Z,0.45
2023-03-26T05:07:47.929Z,0.40
2023-03-26T05:10:20.268Z,0.40
2023-03-26T05:12:59.402Z,0.73
2023-03-26T05:15:31.001Z,0.40
2023-03-26T05:18:00.673Z,0.50
2023-03-26T05:20:33.339Z,0.40
2023-03-26T05:23:02.181Z,0.65
2023-03-26T05:25:32.780Z,0.40
2023-03-26T05:28:02.619Z,0.32
2023-03-26T05:30:40.687Z,0.30
2023-03-26T05:33:10.544Z,0.43
2023-03-26T05:35:49.453Z,0.55
2023-03-26T05:38:18.185Z,0.63
2023-03-26T05:40:46.291Z,0.40
2023-03-26T05:43:21.377Z,0.60
2023-03-26T05:45:59.111Z,0.50
2023-03-26T05:48:32.391Z,0.45
2023-03-26T05:51:00.754Z,0.30
2023-03-26T05:53:32.163Z,0.52
2023-03-26T05:56:32.333Z,0.60
2023-03-26T05:59:19.303Z,0.57
2023-03-26T06:02:06.390Z,0.60
2023-03-26T06:04:54.306Z,0.45
2023-03-26T06:07:42.617Z,0.50
2023-03-26T06:10:20.472Z,0.57
2023-03-26T06:12:49.648Z,0.50
2023-03-26T06:15:18.051Z,0.22
2023-03-26T06:18:04.418Z,0.65
2023-03-26T06:20:54.879Z,0.50
2023-03-26T06:23:36.882Z,0.50
2023-03-26T06:26:17.643Z,0.50
2023-03-26T06:28:50.610Z,0.40
2023-03-26T06:31:42.034Z,0.70
2023-03-26T06:34:33.016Z,0.50
2023-03-26T06:37:02.541Z,0.60
2023-03-26T06:39:31.471Z,0.70
2023-03-26T06:42:22.627Z,0.40
2023-03-26T06:45:36.892Z,0.70
2023-03-26T06:48:23.748Z,0.60
2023-03-26T06:51:10.043Z,0.40
2023-03-26T06:53:59.669Z,0.55
2023-03-26T06:56:48.053Z,0.50
2023-03-26T06:59:45.427Z,0.43
2023-03-26T07:02:31.948Z,0.80
2023-03-26T07:05:18.617Z,0.60
2023-03-26T07:08:05.353Z,0.60
2023-03-26T07:10:53.639Z,0.40
2023-03-26T07:13:45.996Z,0.50
2023-03-26T07:16:32.697Z,0.40
2023-03-26T07:19:11.012Z,0.40
2023-03-26T07:21:41.762Z,0.70
2023-03-26T07:24:30.621Z,0.30
2023-03-26T07:27:28.367Z,0.40
2023-03-26T07:30:03.231Z,0.50
2023-03-26T07:32:54.005Z,0.60
2023-03-26T07:35:42.789Z,0.50
2023-03-26T07:38:48.600Z,0.50
2023-03-26T07:41:42.970Z,0.50
2023-03-26T07:44:49.805Z,0.50
2023-03-26T07:47:45.146Z,0.40
2023-03-26T07:50:18.172Z,0.50
2023-03-26T07:53:04.227Z,0.50
2023-03-26T07:55:59.055Z,0.40
2023-03-26T07:58:55.759Z,0.52
2023-03-26T08:01:58.578Z,0.60
2023-03-26T08:05:02.167Z,0.38
2023-03-26T08:08:09.523Z,0.60
2023-03-26T08:10:54.933Z,0.65
2023-03-26T08:13:28.231Z,0.38
2023-03-26T08:16:05.656Z,0.40
2023-03-26T08:18:45.192Z,0.38
2023-03-26T08:21:17.124Z,0.30
2023-03-26T08:23:56.660Z,0.50
2023-03-26T08:26:32.127Z,0.40
2023-03-26T08:29:11.289Z,0.50
2023-03-26T08:31:42.377Z,0.47
2023-03-26T08:34:14.129Z,0.30
2023-03-26T08:36:42.453Z,0.40
2023-03-26T08:39:10.533Z,0.40
2023-03-26T08:42:13.965Z,0.50
2023-03-26T08:45:08.275Z,0.35
2023-03-26T08:48:03.768Z,0.70
2023-03-26T08:51:07.722Z,0.52
2023-03-26T08:54:14.694Z,0.47
2023-03-26T08:56:53.774Z,0.40
2023-03-26T08:59:51.584Z,0.50
2023-03-26T09:02:56.676Z,0.50
2023-03-26T09:06:00.287Z,0.40
2023-03-26T09:09:18.938Z,0.40
2023-03-26T09:12:20.689Z,0.50
2023-03-26T09:15:33.678Z,0.60
2023-03-26T09:18:42.756Z,9.75
2023-03-26T09:21:33.010Z,20.65
2023-03-26T09:24:30.672Z,102.97
2023-03-26T09:27:16.323Z,287.95
2023-03-26T09:30:15.591Z,199.77
2023-03-26T09:33:11.854Z,135.82
2023-03-26T09:35:55.069Z,90.97
2023-03-26T09:38:39.802Z,68.32
2023-03-26T09:41:15.966Z,52.00
2023-03-26T09:44:09.323Z,46.72
2023-03-26T09:46:47.931Z,37.65
2023-03-26T09:49:33.204Z,33.65
2023-03-26T09:52:17.623Z,28.98
2023-03-26T09:55:20.190Z,24.48
2023-03-26T09:58:06.319Z,22.02
2023-03-26T10:00:42.806Z,18.75
2023-03-26T10:03:28.059Z,17.83
2023-03-26T10:06:15.004Z,15.35
2023-03-26T10:08:58.901Z,14.80
2023-03-26T10:11:38.879Z,12.02
2023-03-26T10:14:15.057Z,11.45
2023-03-26T10:17:00.738Z,10.88
2023-03-26T10:19:44.316Z,9.98
2023-03-26T10:22:28.121Z,8.27
2023-03-26T10:25:23.289Z,8.15
2023-03-26T10:28:02.760Z,7.90
2023-03-26T10:30:55.979Z,6.57
2023-03-26T10:33:37.093Z,5.80
2023-03-26T10:36:29.692Z,5.63
2023-03-26T10:39:36.974Z,6.25
2023-03-26T10:42:25.944Z,4.50
2023-03-26T10:45:12.471Z,5.38
2023-03-26T10:48:11.377Z,4.63
2023-03-26T10:51:17.525Z,4.20
2023-03-26T10:53:50.804Z,3.75
2023-03-26T10:56:26.711Z,3.47
2023-03-26T10:58:57.459Z,3.25
2023-03-26T11:01:38.528Z,3.10
2023-03-26T11:04:20.425Z,2.85
2023-03-26T11:07:01.795Z,2.88
2023-03-26T11:09:41.025Z,2.50
2023-03-26T11:12:26.288Z,2.30
2023-03-26T11:15:04.553Z,2.50
2023-03-26T11:17:42.671Z,2.50
2023-03-26T11:20:18.260Z,2.28
2023-03-26T11:22:58.331Z,1.80
2023-03-26T11:25:44.656Z,2.05
2023-03-26T11:28:27.703Z,2.25
2023-03-26T11:31:01.401Z,1.90
2023-03-26T11:33:36.615Z,1.50
2023-03-26T11:36:08.706Z,1.40
2023-03-26T11:38:40.219Z,1.25
2023-03-26T11:41:13.796Z,1.13
2023-03-26T11:43:57.680Z,1.23
2023-03-26T11:46:28.623Z,1.30
2023-03-26T11:48:59.659Z,1.10
2023-03-26T11:51:32.384Z,1.20
2023-03-26T11:54:00.960Z,1.42
2023-03-26T11:56:32.724Z,1.30
2023-03-26T11:59:07.592Z,1.15
2023-03-26T12:01:50.284Z,0.90
2023-03-26T12:04:20.365Z,0.82
2023-03-26T12:06:56.560Z,1.00
2023-03-26T12:09:25.988Z,0.95
2023-03-26T12:12:05.652Z,0.90
2023-03-26T12:14:37.040Z,0.90
2023-03-26T12:17:08.724Z,0.80
2023-03-26T12:19:40.517Z,1.08
2023-03-26T12:22:30.013Z,0.82
2023-03-26T12:25:18.157Z,1.20
2023-03-26T12:27:50.092Z,0.75
2023-03-26T12:30:25.454Z,0.70
2023-03-26T12:32:57.520Z,0.60
2023-03-26T12:35:27.910Z,0.52
2023-03-26T12:38:13.297Z,0.80
2023-03-26T12:40:43.040Z,0.60
2023-03-26T12:44:55.609Z,0.73
2023-03-26T12:47:56.875Z,0.70
2023-03-26T12:49:19.257Z,0.80
2023-03-26T12:51:51.820Z,0.60
2023-03-26T12:54:34.227Z,0.50
2023-03-26T12:57:20.235Z,0.60
2023-03-26T13:00:15.439Z,0.60
2023-03-26T13:03:02.049Z,0.30
2023-03-26T13:05:42.698Z,0.68
2023-03-26T13:08:38.032Z,0.52
2023-03-26T13:11:17.569Z,0.50
2023-03-26T13:14:20.026Z,0.60
2023-03-26T13:16:55.514Z,0.70
2023-03-26T13:19:34.318Z,0.55
2023-03-26T13:22:16.202Z,0.80
2023-03-26T13:24:53.627Z,0.57
2023-03-26T13:27:42.037Z,0.50
2023-03-26T13:30:22.087Z,1.00
2023-03-26T13:33:21.495Z,0.63
2023-03-26T13:36:14.319Z,0.47
2023-03-26T13:39:14.445Z,0.50
2023-03-26T13:42:08.262Z,0.57
2023-03-26T13:44:48.488Z,0.50
2023-03-26T13:47:20.178Z,0.40
2023-03-26T13:49:52.891Z,0.40
2023-03-26T13:52:25.990Z,0.55
2023-03-26T13:55:15.718Z,0.50
2023-03-26T13:57:50.074Z,0.35
2023-03-26T14:00:23.930Z,0.47
2023-03-26T14:02:59.284Z,0.40
2023-03-26T14:05:32.233Z,0.73
2023-03-26T14:08:05.554Z,0.60
2023-03-26T14:10:37.618Z,0.60
2023-03-26T14:13:11.861Z,0.50
2023-03-26T14:15:45.479Z,0.40
2023-03-26T14:18:25.964Z,0.40
2023-03-26T14:21:16.617Z,0.70
2023-03-26T14:24:03.911Z,0.70
2023-03-26T14:26:59.460Z,0.70
2023-03-26T14:29:39.100Z,0.40
2023-03-26T14:32:38.007Z,0.47
2023-03-26T14:35:21.366Z,0.35
2023-03-26T14:38:08.012Z,0.68
2023-03-26T14:40:53.878Z,0.52
2023-03-26T14:43:53.336Z,0.40
2023-03-26T14:46:51.577Z,0.40
2023-03-26T14:49:53.599Z,0.43
2023-03-26T14:52:30.300Z,0.52
2023-03-26T14:55:02.664Z,0.50
2023-03-26T14:57:54.346Z,0.43
2023-03-26T15:00:40.998Z,0.52
2023-03-26T15:03:51.985Z,0.30
2023-03-26T15:06:49.852Z,0.50
2023-03-26T15:10:05.857Z,0.60
2023-03-26T15:12:49.717Z,0.47
2023-03-26T15:15:58.679Z,0.50
2023-03-26T15:19:07.067Z,0.60
2023-03-26T15:22:04.337Z,0.40
2023-03-26T15:25:06.855Z,1.00
2023-03-26T15:28:23.715Z,1.30
2023-03-26T15:31:19.824Z,0.98
2023-03-26T15:34:23.808Z,1.10
2023-03-26T15:37:32.056Z,0.80
2023-03-26T15:40:21.425Z,0.80
2023-03-26T15:43:03.219Z,1.50
2023-03-26T15:45:35.091Z,1.77
2023-03-26T15:48:34.259Z,2.13
2023-03-26T15:51:29.654Z,2.85
2023-03-26T15:54:03.727Z,2.97
2023-03-26T15:56:49.159Z,3.70
2023-03-26T15:59:31.137Z,4.03
2023-03-26T16:02:12.097Z,4.07
2023-03-26T16:04:51.491Z,4.35
2023-03-26T16:07:39.043Z,4.35
2023-03-26T16:10:21.666Z,5.05
2023-03-26T16:12:57.284Z,5.63
2023-03-26T16:15:33.368Z,6.40
2023-03-26T16:18:28.443Z,6.72
2023-03-26T16:21:04.520Z,11.25
2023-03-26T16:23:47.201Z,42.55
2023-03-26T16:26:20.775Z,91.47
2023-03-26T16:29:14.268Z,108.85
2023-03-26T16:32:00.623Z,72.40
2023-03-26T16:34:38.688Z,51.22
2023-03-26T16:37:27.228Z,35.40
2023-03-26T16:39:55.854Z,29.65
2023-03-26T16:42:35.905Z,24.33
2023-03-26T16:45:22.919Z,22.10
2023-03-26T16:48:01.566Z,18.35
2023-03-26T16:50:41.544Z,18.33
2023-03-26T16:53:24.177Z,15.65
2023-03-26T16:55:59.659Z,13.05
2023-03-26T16:58:36.774Z,13.35
2023-03-26T17:01:09.901Z,12.88
2023-03-26T17:03:46.397Z,10.50
2023-03-26T17:06:27.273Z,9.68
2023-03-26T17:09:02.976Z,9.55
2023-03-26T17:11:42.591Z,9.20
2023-03-26T17:14:32.490Z,8.43
2023-03-26T17:17:24.905Z,7.57
2023-03-26T17:20:04.212Z,7.93
2023-03-26T17:22:40.411Z,7.03
2023-03-26T17:25:32.216Z,6.05
2023-03-26T17:28:24.734Z,6.07
2023-03-26T17:31:03.356Z,5.60
2023-03-26T17:33:34.895Z,5.30
2023-03-26T17:36:32.805Z,5.30
2023-03-26T17:39:05.102Z,4.80
2023-03-26T17:42:13.025Z,4.75
2023-03-26T17:44:46.199Z,4.25
2023-03-26T17:47:34.359Z,3.63
2023-03-26T17:50:07.634Z,3.92
2023-03-26T17:52:48.379Z,3.88
2023-03-26T17:55:21.211Z,3.80
2023-03-26T17:57:53.253Z,3.15
2023-03-26T18:00:24.770Z,3.15
2023-03-26T18:02:57.298Z,3.42
2023-03-26T18:05:29.949Z,3.47
2023-03-26T18:08:32.148Z,3.40
2023-03-26T18:11:25.666Z,2.22
2023-03-26T18:14:28.777Z,2.58
2023-03-26T18:16:59.790Z,2.00
2023-03-26T18:19:28.863Z,2.20
2023-03-26T18:22:00.533Z,3.03
2023-03-26T18:24:32.825Z,1.90
2023-03-26T18:27:04.700Z,2.03
2023-03-26T18:29:35.325Z,2.13
2023-03-26T18:32:16.784Z,1.73
2023-03-26T18:34:50.083Z,1.60
2023-03-26T18:37:21.112Z,1.60
2023-03-26T18:40:00.765Z,1.67
2023-03-26T18:42:30.725Z,1.52
2023-03-26T18:45:02.173Z,1.67
2023-03-26T18:47:32.824Z,1.50
2023-03-26T18:50:01.539Z,1.50
2023-03-26T18:52:33.004Z,1.10
2023-03-26T18:55:04.474Z,1.40
2023-03-26T18:57:32.511Z,1.48
2023-03-26T19:00:18.597Z,1.48
2023-03-26T19:02:49.898Z,1.08
2023-03-26T19:05:19.537Z,1.25
2023-03-26T19:07:49.106Z,1.10
2023-03-26T19:10:22.128Z,1.45
2023-03-26T19:12:56.926Z,1.17
2023-03-26T19:15:26.556Z,1.23
2023-03-26T19:17:59.840Z,1.25
2023-03-26T19:20:30.695Z,0.98
2023-03-26T19:22:59.220Z,1.38
2023-03-26T19:25:40.801Z,1.20
2023-03-26T19:28:17.450Z,1.10
2023-03-26T19:30:45.715Z,1.05
2023-03-26T19:33:18.334Z,1.20
2023-03-26T19:35:52.659Z,0.70
2023-03-26T19:38:24.584Z,0.90
2023-03-26T19:40:56.242Z,1.23
2023-03-26T19:43:25.008Z,0.80
2023-03-26T19:46:00.545Z,0.93
2023-03-26T19:48:46.013Z,1.08
2023-03-26T19:51:22.076Z,0.80
2023-03-26T19:53:54.365Z,1.10
2023-03-26T19:56:24.062Z,0.75
2023-03-26T19:58:52.597Z,0.80
2023-03-26T20:01:24.213Z,0.57
2023-03-26T20:03:55.510Z,0.90
2023-03-26T20:06:34.132Z,0.93
2023-03-26T20:09:06.276Z,0.90
2023-03-26T20:11:39.223Z,0.90
2023-03-26T20:14:13.924Z,0.82
2023-03-26T20:16:44.292Z,0.70
2023-03-26T20:19:14.214Z,0.80
2023-03-26T20:21:42.591Z,0.60
2023-03-26T20:24:14.582Z,0.80
2023-03-26T20:26:44.488Z,0.82
2023-03-26T20:29:12.911Z,0.80
2023-03-26T20:31:42.037Z,0.80
2023-03-26T20:34:17.327Z,0.98
2023-03-26T20:36:46.841Z,0.70
2023-03-26T20:39:15.126Z,0.85
2023-03-26T20:41:50.056Z,0.77
2023-03-26T20:44:19.949Z,0.65
2023-03-26T20:46:49.612Z,0.77
2023-03-26T20:49:18.074Z,0.70
2023-03-26T20:51:46.802Z,0.90
2023-03-26T20:54:18.761Z,0.40
2023-03-26T20:56:48.885Z,0.68
2023-03-26T20:59:21.711Z,0.60
2023-03-26T21:01:51.198Z,0.82
2023-03-26T21:04:20.071Z,0.63
2023-03-26T21:06:48.298Z,0.52
2023-03-26T21:09:18.526Z,0.57
2023-03-26T21:11:54.753Z,0.60
2023-03-26T21:14:26.029Z,0.70
2023-03-26T21:16:54.681Z,0.60
2023-03-26T21:19:23.251Z,0.82
2023-03-26T21:22:11.049Z,0.50
2023-03-26T21:24:50.673Z,0.65
2023-03-26T21:27:26.944Z,0.38
2023-03-26T21:29:55.584Z,0.40
2023-03-26T21:32:24.388Z,0.55
2023-03-26T21:34:58.807Z,0.45
2023-03-26T21:37:28.079Z,0.40
2023-03-26T21:39:56.718Z,0.40
2023-03-26T21:42:29.317Z,0.60
2023-03-26T21:44:57.918Z,0.70
2023-03-26T21:47:26.590Z,0.40
2023-03-26T21:49:55.228Z,0.52
2023-03-26T21:52:24.511Z,0.55
2023-03-26T21:54:53.437Z,0.55
2023-03-26T21:57:39.837Z,0.50
2023-03-26T22:00:15.120Z,0.50
2023-03-26T22:02:53.298Z,0.55
2023-03-26T22:05:27.706Z,0.60
2023-03-26T22:07:59.850Z,0.30
2023-03-26T22:10:27.932Z,0.50
2023-03-26T22:12:57.337Z,0.63
2023-03-26T22:15:26.756Z,0.32
2023-03-26T22:17:55.766Z,0.40
2023-03-26T22:20:25.238Z,0.60
2023-03-26T22:22:55.214Z,0.50
2023-03-26T22:25:24.478Z,0.40
2023-03-26T22:27:53.879Z,0.35
2023-03-26T22:30:23.244Z,0.52
2023-03-26T22:32:51.704Z,0.60
2023-03-26T22:35:19.787Z,0.45
2023-03-26T22:37:47.875Z,0.60
2023-03-26T22:40:16.133Z,0.50
2023-03-26T22:42:44.081Z,0.50
2023-03-26T22:45:13.086Z,0.30
2023-03-26T22:47:42.400Z,0.40
2023-03-26T22:50:11.151Z,0.50
2023-03-26T22:52:40.688Z,0.40
2023-03-26T22:55:10.945Z,0.60
2023-03-26T22:57:39.379Z,0.60
2023-03-26T23:00:14.513Z,0.30
2023-03-26T23:02:45.872Z,0.57
2023-03-26T23:05:14.473Z,0.73
2023-03-26T23:07:42.599Z,0.50
2023-03-26T23:10:12.188Z,0.52
2023-03-26T23:12:41.370Z,0.50
2023-03-26T23:15:10.734Z,0.50
2023-03-26T23:17:38.980Z,0.40
2023-03-26T23:20:14.613Z,0.57
2023-03-26T23:22:43.764Z,0.63
2023-03-26T23:25:12.579Z,0.55
2023-03-26T23:27:41.355Z,0.60
2023-03-26T23:30:11.862Z,0.40
2023-03-26T23:32:40.711Z,0.60
2023-03-26T23:35:11.233Z,0.30
2023-03-26T23:37:42.405Z,0.65
2023-03-26T23:40:13.759Z,0.52
2023-03-26T23:42:42.431Z,0.30
2023-03-26T23:45:12.219Z,0.60
2023-03-26T23:47:42.561Z,0.45
2023-03-26T23:50:12.952Z,0.40
2023-03-26T23:52:41.196Z,0.47
2023-03-26T23:55:09.853Z,0.40
2023-03-26T23:57:38.126Z,0.50
